Aviation Digital Data Service (ADDS)

Output produced by METARs form (0521 UTC 18 January 2022)
found at http://www.aviationweather.gov/metar/data/
 
METAR text: KRNH 180515Z AUTO 16004KT 10SM OVC090 M04/M06 A2983 RMK AO2 T10401062
Conditions at: KRNH (NEW RICHMOND MUN, WI, US) observed 0515 UTC 18 January 2022
Temperature: -4.0°C (25°F)
Dewpoint: -6.2°C (21°F) [RH = 85%]
Pressure (altimeter): 29.83 inches Hg (1010.2 mb)
Winds: from the SSE (160 degrees) at 5 MPH (4 knots; 2.1 m/s)
Visibility: 10 or more miles (16+ km)
Ceiling: 9000 feet AGL
Clouds: overcast cloud deck at 9000 feet AGL
Weather: automated observation with no human augmentation;
there may or may not be significant weather present at this time

METAR text: KRNH 180455Z AUTO 15003KT 10SM SCT080 OVC100 M04/M07 A2983 RMK AO2 T10441066
Conditions at: KRNH (NEW RICHMOND MUN, WI, US) observed 0455 UTC 18 January 2022
Temperature: -4.4°C (24°F)
Dewpoint: -6.6°C (20°F) [RH = 85%]
Pressure (altimeter): 29.83 inches Hg (1010.2 mb)
Winds: from the SSE (150 degrees) at 3 MPH (3 knots; 1.5 m/s)
Visibility: 10 or more miles (16+ km)
Ceiling: 10000 feet AGL
Clouds: scattered clouds at 8000 feet AGL
overcast cloud deck at 10000 feet AGL
Weather: automated observation with no human augmentation;
there may or may not be significant weather present at this time

METAR text: KRNH 180435Z AUTO 15003KT 10SM SCT060 OVC100 M04/M07 A2983 RMK AO2 T10451067
Conditions at: KRNH (NEW RICHMOND MUN, WI, US) observed 0435 UTC 18 January 2022
Temperature: -4.5°C (24°F)
Dewpoint: -6.7°C (20°F) [RH = 85%]
Pressure (altimeter): 29.83 inches Hg (1010.2 mb)
Winds: from the SSE (150 degrees) at 3 MPH (3 knots; 1.5 m/s)
Visibility: 10 or more miles (16+ km)
Ceiling: 10000 feet AGL
Clouds: scattered clouds at 6000 feet AGL
overcast cloud deck at 10000 feet AGL
Weather: automated observation with no human augmentation;
there may or may not be significant weather present at this time

Forecast for: KRNH (NEW RICHMOND MUN, WI, US)
Text: KRNH 180520Z 1806/1906 14002KT P6SM SCT015 OVC080
Forecast period: 0600 to 1200 UTC 18 January 2022
Forecast type: FROM: standard forecast or significant change
Winds: from the SE (140 degrees) at 2 MPH (2 knots; 1.0 m/s)
Visibility: 6 or more miles (10+ km)
Ceiling: 8000 feet AGL
Clouds: scattered clouds at 1500 feet AGL
overcast cloud deck at 8000 feet AGL
Weather: no significant weather forecast for this period
Text: FM181200 12004KT P6SM SCT012 OVC025
Forecast period: 1200 to 1700 UTC 18 January 2022
Forecast type: FROM: standard forecast or significant change
Winds: from the ESE (120 degrees) at 5 MPH (4 knots; 2.1 m/s)
Visibility: 6 or more miles (10+ km)
Ceiling: 2500 feet AGL
Clouds: scattered clouds at 1200 feet AGL
overcast cloud deck at 2500 feet AGL
Weather: no significant weather forecast for this period
Text: FM181700 18012G19KT P6SM BKN015
Forecast period: 1700 to 2200 UTC 18 January 2022
Forecast type: FROM: standard forecast or significant change
Winds: from the S (180 degrees) at 14 MPH (12 knots; 6.2 m/s)
gusting to 22 MPH (19 knots; 9.8 m/s)
Visibility: 6 or more miles (10+ km)
Ceiling: 1500 feet AGL
Clouds: broken clouds at 1500 feet AGL
Weather: no significant weather forecast for this period
Text: FM182200 28014G21KT P6SM OVC015
Forecast period: 2200 UTC 18 January 2022 to 0600 UTC 19 January 2022
Forecast type: FROM: standard forecast or significant change
Winds: from the W (280 degrees) at 16 MPH (14 knots; 7.2 m/s)
gusting to 24 MPH (21 knots; 10.8 m/s)
Visibility: 6 or more miles (10+ km)
Ceiling: 1500 feet AGL
Clouds: overcast cloud deck at 1500 feet AGL
Weather: no significant weather forecast for this period